sensor_id;sensor_type;location;lat;lon;timestamp;P1;durP1;ratioP1;P2;durP2;ratioP2
36241;SDS011;22283;42.748;12.732;2024-02-04T00:02:52;6.40;;;3.37;;
36241;SDS011;22283;42.748;12.732;2024-02-04T00:07:53;6.67;;;2.63;;
36241;SDS011;22283;42.748;12.732;2024-02-04T00:12:54;4.27;;;1.80;;
36241;SDS011;22283;42.748;12.732;2024-02-04T00:17:55;6.30;;;1.90;;
36241;SDS011;22283;42.748;12.732;2024-02-04T00:22:56;7.25;;;2.65;;
36241;SDS011;22283;42.748;12.732;2024-02-04T00:27:57;6.23;;;1.93;;
36241;SDS011;22283;42.748;12.732;2024-02-04T00:32:58;5.40;;;2.00;;
36241;SDS011;22283;42.748;12.732;2024-02-04T00:38:03;6.93;;;3.08;;
36241;SDS011;22283;42.748;12.732;2024-02-04T00:43:03;6.27;;;3.10;;
36241;SDS011;22283;42.748;12.732;2024-02-04T00:48:04;5.57;;;2.20;;
36241;SDS011;22283;42.748;12.732;2024-02-04T00:53:05;10.75;;;4.38;;
36241;SDS011;22283;42.748;12.732;2024-02-04T00:58:06;11.33;;;4.77;;
36241;SDS011;22283;42.748;12.732;2024-02-04T01:03:06;14.30;;;5.00;;
36241;SDS011;22283;42.748;12.732;2024-02-04T01:08:07;6.07;;;3.00;;
36241;SDS011;22283;42.748;12.732;2024-02-04T01:13:08;7.03;;;2.63;;
36241;SDS011;22283;42.748;12.732;2024-02-04T01:18:09;5.57;;;2.90;;
36241;SDS011;22283;42.748;12.732;2024-02-04T01:23:09;7.87;;;3.33;;
36241;SDS011;22283;42.748;12.732;2024-02-04T01:28:10;13.57;;;4.73;;
36241;SDS011;22283;42.748;12.732;2024-02-04T01:33:10;13.10;;;5.57;;
36241;SDS011;22283;42.748;12.732;2024-02-04T01:38:11;12.03;;;6.20;;
36241;SDS011;22283;42.748;12.732;2024-02-04T01:43:12;9.83;;;4.73;;
36241;SDS011;22283;42.748;12.732;2024-02-04T01:48:12;9.27;;;4.50;;
36241;SDS011;22283;42.748;12.732;2024-02-04T01:53:16;7.63;;;4.03;;
36241;SDS011;22283;42.748;12.732;2024-02-04T01:58:19;5.43;;;2.60;;
36241;SDS011;22283;42.748;12.732;2024-02-04T02:03:20;5.20;;;2.30;;
36241;SDS011;22283;42.748;12.732;2024-02-04T02:08:21;4.82;;;2.17;;
36241;SDS011;22283;42.748;12.732;2024-02-04T02:13:23;8.00;;;2.97;;
36241;SDS011;22283;42.748;12.732;2024-02-04T02:18:44;9.68;;;4.15;;
36241;SDS011;22283;42.748;12.732;2024-02-04T02:23:53;9.82;;;3.10;;
36241;SDS011;22283;42.748;12.732;2024-02-04T02:29:17;9.52;;;2.95;;
36241;SDS011;22283;42.748;12.732;2024-02-04T02:34:18;10.37;;;3.77;;
36241;SDS011;22283;42.748;12.732;2024-02-04T02:39:21;4.90;;;2.70;;
36241;SDS011;22283;42.748;12.732;2024-02-04T02:44:25;6.18;;;3.33;;
36241;SDS011;22283;42.748;12.732;2024-02-04T02:49:27;14.05;;;2.67;;
36241;SDS011;22283;42.748;12.732;2024-02-04T02:54:27;7.43;;;2.77;;
36241;SDS011;22283;42.748;12.732;2024-02-04T02:59:28;4.60;;;2.67;;
36241;SDS011;22283;42.748;12.732;2024-02-04T03:04:29;19.57;;;4.50;;
36241;SDS011;22283;42.748;12.732;2024-02-04T03:09:30;13.90;;;4.33;;
36241;SDS011;22283;42.748;12.732;2024-02-04T03:14:31;12.97;;;4.77;;
36241;SDS011;22283;42.748;12.732;2024-02-04T03:19:31;5.67;;;2.67;;
36241;SDS011;22283;42.748;12.732;2024-02-04T03:24:32;9.53;;;3.17;;
36241;SDS011;22283;42.748;12.732;2024-02-04T03:29:33;7.07;;;2.97;;
36241;SDS011;22283;42.748;12.732;2024-02-04T03:34:34;7.53;;;3.37;;
36241;SDS011;22283;42.748;12.732;2024-02-04T03:39:36;6.80;;;2.72;;
36241;SDS011;22283;42.748;12.732;2024-02-04T03:44:37;10.00;;;3.00;;
36241;SDS011;22283;42.748;12.732;2024-02-04T03:49:37;6.47;;;2.47;;
36241;SDS011;22283;42.748;12.732;2024-02-04T03:54:38;7.03;;;2.80;;
36241;SDS011;22283;42.748;12.732;2024-02-04T03:59:39;6.63;;;2.95;;
36241;SDS011;22283;42.748;12.732;2024-02-04T04:04:40;8.33;;;3.10;;
36241;SDS011;22283;42.748;12.732;2024-02-04T04:14:42;6.22;;;2.67;;
36241;SDS011;22283;42.748;12.732;2024-02-04T04:19:43;6.07;;;3.33;;
36241;SDS011;22283;42.748;12.732;2024-02-04T04:24:44;5.37;;;2.60;;
36241;SDS011;22283;42.748;12.732;2024-02-04T04:29:44;8.90;;;3.00;;
36241;SDS011;22283;42.748;12.732;2024-02-04T04:34:45;7.13;;;3.20;;
36241;SDS011;22283;42.748;12.732;2024-02-04T04:39:45;6.33;;;3.03;;
36241;SDS011;22283;42.748;12.732;2024-02-04T04:44:46;7.77;;;2.93;;
36241;SDS011;22283;42.748;12.732;2024-02-04T04:49:47;8.70;;;3.50;;
36241;SDS011;22283;42.748;12.732;2024-02-04T04:54:47;6.27;;;3.07;;
36241;SDS011;22283;42.748;12.732;2024-02-04T04:59:48;6.50;;;2.93;;
36241;SDS011;22283;42.748;12.732;2024-02-04T05:04:49;18.80;;;4.10;;
36241;SDS011;22283;42.748;12.732;2024-02-04T05:09:50;5.73;;;3.07;;
36241;SDS011;22283;42.748;12.732;2024-02-04T05:14:50;7.67;;;3.17;;
36241;SDS011;22283;42.748;12.732;2024-02-04T05:19:51;10.10;;;3.43;;
36241;SDS011;22283;42.748;12.732;2024-02-04T05:24:51;9.70;;;3.80;;
36241;SDS011;22283;42.748;12.732;2024-02-04T05:29:52;8.70;;;3.60;;
36241;SDS011;22283;42.748;12.732;2024-02-04T05:34:53;8.13;;;3.47;;
36241;SDS011;22283;42.748;12.732;2024-02-04T05:39:53;12.70;;;4.07;;
36241;SDS011;22283;42.748;12.732;2024-02-04T05:44:54;7.43;;;3.57;;
36241;SDS011;22283;42.748;12.732;2024-02-04T05:49:55;9.90;;;4.30;;
36241;SDS011;22283;42.748;12.732;2024-02-04T05:54:55;10.07;;;5.70;;
36241;SDS011;22283;42.748;12.732;2024-02-04T05:59:56;19.67;;;7.03;;
36241;SDS011;22283;42.748;12.732;2024-02-04T06:04:59;14.27;;;4.20;;
36241;SDS011;22283;42.748;12.732;2024-02-04T06:10:00;26.60;;;8.03;;
36241;SDS011;22283;42.748;12.732;2024-02-04T06:15:04;18.42;;;5.57;;
36241;SDS011;22283;42.748;12.732;2024-02-04T06:20:05;13.48;;;3.95;;
36241;SDS011;22283;42.748;12.732;2024-02-04T06:25:06;9.75;;;3.95;;
36241;SDS011;22283;42.748;12.732;2024-02-04T06:30:07;9.65;;;3.83;;
36241;SDS011;22283;42.748;12.732;2024-02-04T06:35:09;6.70;;;3.57;;
36241;SDS011;22283;42.748;12.732;2024-02-04T06:40:10;12.82;;;4.70;;
36241;SDS011;22283;42.748;12.732;2024-02-04T06:45:11;15.45;;;3.08;;
36241;SDS011;22283;42.748;12.732;2024-02-04T06:50:12;9.13;;;3.27;;
36241;SDS011;22283;42.748;12.732;2024-02-04T06:55:14;10.35;;;3.65;;
36241;SDS011;22283;42.748;12.732;2024-02-04T07:00:15;7.20;;;3.20;;
36241;SDS011;22283;42.748;12.732;2024-02-04T07:05:16;13.83;;;4.10;;
36241;SDS011;22283;42.748;12.732;2024-02-04T07:10:17;19.97;;;6.97;;
36241;SDS011;22283;42.748;12.732;2024-02-04T07:15:17;28.87;;;8.80;;
36241;SDS011;22283;42.748;12.732;2024-02-04T07:20:18;16.37;;;4.67;;
36241;SDS011;22283;42.748;12.732;2024-02-04T07:25:20;22.75;;;8.57;;
36241;SDS011;22283;42.748;12.732;2024-02-04T07:30:21;17.67;;;7.63;;
36241;SDS011;22283;42.748;12.732;2024-02-04T07:35:21;10.00;;;4.67;;
36241;SDS011;22283;42.748;12.732;2024-02-04T07:40:22;27.00;;;10.30;;
36241;SDS011;22283;42.748;12.732;2024-02-04T07:45:24;21.70;;;5.53;;
36241;SDS011;22283;42.748;12.732;2024-02-04T07:50:25;8.43;;;4.27;;
36241;SDS011;22283;42.748;12.732;2024-02-04T07:55:26;21.02;;;4.53;;
36241;SDS011;22283;42.748;12.732;2024-02-04T08:00:27;9.93;;;5.63;;
36241;SDS011;22283;42.748;12.732;2024-02-04T08:05:27;15.57;;;6.07;;
36241;SDS011;22283;42.748;12.732;2024-02-04T08:10:29;15.95;;;5.50;;
36241;SDS011;22283;42.748;12.732;2024-02-04T08:15:29;21.00;;;5.13;;
36241;SDS011;22283;42.748;12.732;2024-02-04T08:20:30;11.67;;;4.03;;
36241;SDS011;22283;42.748;12.732;2024-02-04T08:25:30;8.57;;;3.60;;
36241;SDS011;22283;42.748;12.732;2024-02-04T08:30:31;20.63;;;9.87;;
36241;SDS011;22283;42.748;12.732;2024-02-04T08:35:32;14.17;;;7.77;;
36241;SDS011;22283;42.748;12.732;2024-02-04T08:40:32;16.33;;;8.70;;
36241;SDS011;22283;42.748;12.732;2024-02-04T08:45:33;16.93;;;8.43;;
36241;SDS011;22283;42.748;12.732;2024-02-04T08:50:34;17.63;;;10.23;;
36241;SDS011;22283;42.748;12.732;2024-02-04T08:55:34;18.77;;;9.93;;
36241;SDS011;22283;42.748;12.732;2024-02-04T09:00:35;16.10;;;8.73;;
36241;SDS011;22283;42.748;12.732;2024-02-04T09:05:35;15.23;;;8.50;;
36241;SDS011;22283;42.748;12.732;2024-02-04T09:10:36;22.47;;;9.23;;
36241;SDS011;22283;42.748;12.732;2024-02-04T09:15:37;17.20;;;9.50;;
36241;SDS011;22283;42.748;12.732;2024-02-04T09:20:37;21.37;;;9.63;;
36241;SDS011;22283;42.748;12.732;2024-02-04T09:25:38;26.53;;;14.00;;
36241;SDS011;22283;42.748;12.732;2024-02-04T09:30:39;25.67;;;11.80;;
36241;SDS011;22283;42.748;12.732;2024-02-04T09:35:40;29.10;;;12.23;;
36241;SDS011;22283;42.748;12.732;2024-02-04T09:40:40;20.00;;;10.53;;
36241;SDS011;22283;42.748;12.732;2024-02-04T09:45:41;21.13;;;9.88;;
36241;SDS011;22283;42.748;12.732;2024-02-04T09:50:42;25.53;;;10.57;;
36241;SDS011;22283;42.748;12.732;2024-02-04T09:55:43;18.33;;;10.00;;
36241;SDS011;22283;42.748;12.732;2024-02-04T10:00:45;21.08;;;8.23;;
36241;SDS011;22283;42.748;12.732;2024-02-04T10:05:47;13.98;;;7.55;;
36241;SDS011;22283;42.748;12.732;2024-02-04T10:10:48;17.20;;;5.40;;
36241;SDS011;22283;42.748;12.732;2024-02-04T10:15:49;14.35;;;5.10;;
36241;SDS011;22283;42.748;12.732;2024-02-04T10:20:50;18.50;;;6.70;;
36241;SDS011;22283;42.748;12.732;2024-02-04T10:25:57;12.20;;;5.43;;
36241;SDS011;22283;42.748;12.732;2024-02-04T10:30:59;16.02;;;5.25;;
36241;SDS011;22283;42.748;12.732;2024-02-04T10:35:59;16.80;;;5.63;;
36241;SDS011;22283;42.748;12.732;2024-02-04T10:41:00;14.93;;;4.90;;
36241;SDS011;22283;42.748;12.732;2024-02-04T10:46:08;14.38;;;4.80;;
36241;SDS011;22283;42.748;12.732;2024-02-04T10:51:15;15.55;;;5.22;;
36241;SDS011;22283;42.748;12.732;2024-02-04T11:01:22;10.27;;;4.32;;
36241;SDS011;22283;42.748;12.732;2024-02-04T11:06:23;27.50;;;7.15;;
36241;SDS011;22283;42.748;12.732;2024-02-04T11:11:24;14.07;;;5.30;;
36241;SDS011;22283;42.748;12.732;2024-02-04T11:27:24;13.43;;;7.28;;
36241;SDS011;22283;42.748;12.732;2024-02-04T11:32:26;11.43;;;5.38;;
36241;SDS011;22283;42.748;12.732;2024-02-04T11:37:28;13.10;;;4.55;;
36241;SDS011;22283;42.748;12.732;2024-02-04T11:42:33;18.40;;;6.18;;
36241;SDS011;22283;42.748;12.732;2024-02-04T11:47:34;14.65;;;5.25;;
36241;SDS011;22283;42.748;12.732;2024-02-04T11:52:38;12.75;;;5.00;;
36241;SDS011;22283;42.748;12.732;2024-02-04T11:57:39;13.88;;;5.97;;
36241;SDS011;22283;42.748;12.732;2024-02-04T12:02:40;11.73;;;5.00;;
36241;SDS011;22283;42.748;12.732;2024-02-04T12:07:41;14.60;;;5.23;;
36241;SDS011;22283;42.748;12.732;2024-02-04T12:12:42;15.93;;;5.88;;
36241;SDS011;22283;42.748;12.732;2024-02-04T12:17:42;15.87;;;6.07;;
36241;SDS011;22283;42.748;12.732;2024-02-04T12:22:44;13.50;;;5.88;;
36241;SDS011;22283;42.748;12.732;2024-02-04T12:27:44;14.40;;;5.23;;
36241;SDS011;22283;42.748;12.732;2024-02-04T12:32:57;12.40;;;6.78;;
36241;SDS011;22283;42.748;12.732;2024-02-04T12:37:59;14.90;;;6.82;;
36241;SDS011;22283;42.748;12.732;2024-02-04T12:48:02;14.57;;;6.00;;
36241;SDS011;22283;42.748;12.732;2024-02-04T12:53:04;13.73;;;6.20;;
36241;SDS011;22283;42.748;12.732;2024-02-04T12:58:07;12.55;;;5.35;;
36241;SDS011;22283;42.748;12.732;2024-02-04T13:08:19;17.35;;;6.88;;
36241;SDS011;22283;42.748;12.732;2024-02-04T13:13:20;17.23;;;6.50;;
36241;SDS011;22283;42.748;12.732;2024-02-04T13:18:21;16.40;;;7.97;;
36241;SDS011;22283;42.748;12.732;2024-02-04T13:23:21;21.30;;;5.90;;
36241;SDS011;22283;42.748;12.732;2024-02-04T13:28:22;14.37;;;7.07;;
36241;SDS011;22283;42.748;12.732;2024-02-04T13:33:23;17.08;;;5.68;;
36241;SDS011;22283;42.748;12.732;2024-02-04T13:38:23;19.60;;;7.77;;
36241;SDS011;22283;42.748;12.732;2024-02-04T13:43:24;19.77;;;6.30;;
36241;SDS011;22283;42.748;12.732;2024-02-04T13:48:25;13.23;;;6.97;;
36241;SDS011;22283;42.748;12.732;2024-02-04T13:53:26;17.25;;;8.30;;
36241;SDS011;22283;42.748;12.732;2024-02-04T13:58:27;20.80;;;6.55;;
36241;SDS011;22283;42.748;12.732;2024-02-04T14:03:27;14.63;;;6.50;;
36241;SDS011;22283;42.748;12.732;2024-02-04T14:08:28;16.47;;;5.93;;
36241;SDS011;22283;42.748;12.732;2024-02-04T14:13:29;13.67;;;5.77;;
36241;SDS011;22283;42.748;12.732;2024-02-04T14:18:29;16.07;;;6.27;;
36241;SDS011;22283;42.748;12.732;2024-02-04T14:23:30;10.87;;;5.33;;
36241;SDS011;22283;42.748;12.732;2024-02-04T14:28:31;11.83;;;5.67;;
36241;SDS011;22283;42.748;12.732;2024-02-04T14:33:31;10.77;;;5.07;;
36241;SDS011;22283;42.748;12.732;2024-02-04T14:38:32;10.87;;;4.47;;
36241;SDS011;22283;42.748;12.732;2024-02-04T14:43:33;16.50;;;8.40;;
36241;SDS011;22283;42.748;12.732;2024-02-04T14:48:35;14.50;;;5.97;;
36241;SDS011;22283;42.748;12.732;2024-02-04T14:53:37;30.17;;;10.95;;
36241;SDS011;22283;42.748;12.732;2024-02-04T14:58:38;21.53;;;9.90;;
36241;SDS011;22283;42.748;12.732;2024-02-04T15:03:39;14.27;;;7.27;;
36241;SDS011;22283;42.748;12.732;2024-02-04T15:08:39;16.40;;;6.47;;
36241;SDS011;22283;42.748;12.732;2024-02-04T15:13:40;20.10;;;8.00;;
36241;SDS011;22283;42.748;12.732;2024-02-04T15:18:41;19.60;;;7.13;;
36241;SDS011;22283;42.748;12.732;2024-02-04T15:23:42;23.10;;;8.53;;
36241;SDS011;22283;42.748;12.732;2024-02-04T15:28:46;28.80;;;11.07;;
36241;SDS011;22283;42.748;12.732;2024-02-04T15:33:49;13.43;;;7.65;;
36241;SDS011;22283;42.748;12.732;2024-02-04T15:38:50;18.43;;;8.50;;
36241;SDS011;22283;42.748;12.732;2024-02-04T15:43:51;18.48;;;8.93;;
36241;SDS011;22283;42.748;12.732;2024-02-04T15:48:52;28.83;;;11.10;;
36241;SDS011;22283;42.748;12.732;2024-02-04T15:53:56;30.05;;;13.20;;
36241;SDS011;22283;42.748;12.732;2024-02-04T15:59:02;26.37;;;11.43;;
36241;SDS011;22283;42.748;12.732;2024-02-04T16:04:08;23.07;;;10.73;;
36241;SDS011;22283;42.748;12.732;2024-02-04T16:09:09;15.95;;;7.18;;
36241;SDS011;22283;42.748;12.732;2024-02-04T16:14:11;17.20;;;8.40;;
36241;SDS011;22283;42.748;12.732;2024-02-04T16:19:13;18.05;;;8.23;;
36241;SDS011;22283;42.748;12.732;2024-02-04T16:24:14;24.42;;;10.75;;
36241;SDS011;22283;42.748;12.732;2024-02-04T16:29:15;28.73;;;12.23;;
36241;SDS011;22283;42.748;12.732;2024-02-04T16:34:15;25.50;;;11.90;;
36241;SDS011;22283;42.748;12.732;2024-02-04T16:39:16;21.67;;;11.17;;
36241;SDS011;22283;42.748;12.732;2024-02-04T16:44:17;27.70;;;12.03;;
36241;SDS011;22283;42.748;12.732;2024-02-04T16:49:17;29.17;;;12.10;;
36241;SDS011;22283;42.748;12.732;2024-02-04T16:54:18;23.00;;;10.90;;
36241;SDS011;22283;42.748;12.732;2024-02-04T16:59:23;28.85;;;10.88;;
36241;SDS011;22283;42.748;12.732;2024-02-04T17:04:24;22.85;;;12.25;;
36241;SDS011;22283;42.748;12.732;2024-02-04T17:09:25;29.50;;;15.73;;
36241;SDS011;22283;42.748;12.732;2024-02-04T17:14:26;34.07;;;18.80;;
36241;SDS011;22283;42.748;12.732;2024-02-04T17:19:45;36.22;;;19.73;;
36241;SDS011;22283;42.748;12.732;2024-02-04T17:24:51;36.35;;;17.92;;
36241;SDS011;22283;42.748;12.732;2024-02-04T17:29:55;27.48;;;17.90;;
36241;SDS011;22283;42.748;12.732;2024-02-04T17:35:00;32.88;;;18.02;;
36241;SDS011;22283;42.748;12.732;2024-02-04T17:40:02;33.17;;;18.52;;
36241;SDS011;22283;42.748;12.732;2024-02-04T17:45:05;28.92;;;20.00;;
36241;SDS011;22283;42.748;12.732;2024-02-04T17:50:08;35.90;;;19.27;;
36241;SDS011;22283;42.748;12.732;2024-02-04T17:55:10;33.53;;;17.17;;
36241;SDS011;22283;42.748;12.732;2024-02-04T18:00:11;36.57;;;17.13;;
36241;SDS011;22283;42.748;12.732;2024-02-04T18:05:13;31.05;;;17.77;;
36241;SDS011;22283;42.748;12.732;2024-02-04T18:10:14;32.43;;;19.70;;
36241;SDS011;22283;42.748;12.732;2024-02-04T18:15:15;39.57;;;16.97;;
36241;SDS011;22283;42.748;12.732;2024-02-04T18:20:15;38.07;;;17.40;;
36241;SDS011;22283;42.748;12.732;2024-02-04T18:25:16;43.73;;;22.83;;
36241;SDS011;22283;42.748;12.732;2024-02-04T18:30:17;26.93;;;16.73;;
36241;SDS011;22283;42.748;12.732;2024-02-04T18:35:19;30.35;;;18.13;;
36241;SDS011;22283;42.748;12.732;2024-02-04T18:40:20;41.53;;;21.70;;
36241;SDS011;22283;42.748;12.732;2024-02-04T18:45:21;34.97;;;19.83;;
36241;SDS011;22283;42.748;12.732;2024-02-04T18:50:21;42.37;;;24.80;;
36241;SDS011;22283;42.748;12.732;2024-02-04T18:55:22;41.13;;;20.03;;
36241;SDS011;22283;42.748;12.732;2024-02-04T19:00:23;34.05;;;17.48;;
36241;SDS011;22283;42.748;12.732;2024-02-04T19:05:24;43.03;;;21.30;;
36241;SDS011;22283;42.748;12.732;2024-02-04T19:10:24;36.03;;;21.30;;
36241;SDS011;22283;42.748;12.732;2024-02-04T19:15:25;32.30;;;18.35;;
36241;SDS011;22283;42.748;12.732;2024-02-04T19:20:26;37.40;;;19.17;;
36241;SDS011;22283;42.748;12.732;2024-02-04T19:25:27;84.57;;;43.17;;
36241;SDS011;22283;42.748;12.732;2024-02-04T19:30:27;45.00;;;26.10;;
36241;SDS011;22283;42.748;12.732;2024-02-04T19:35:28;31.73;;;16.20;;
36241;SDS011;22283;42.748;12.732;2024-02-04T19:40:29;27.57;;;16.23;;
36241;SDS011;22283;42.748;12.732;2024-02-04T19:45:29;31.03;;;15.40;;
36241;SDS011;22283;42.748;12.732;2024-02-04T19:50:30;21.57;;;13.23;;
36241;SDS011;22283;42.748;12.732;2024-02-04T19:55:31;28.70;;;15.80;;
36241;SDS011;22283;42.748;12.732;2024-02-04T20:00:31;29.80;;;18.07;;
36241;SDS011;22283;42.748;12.732;2024-02-04T20:05:33;31.88;;;19.30;;
36241;SDS011;22283;42.748;12.732;2024-02-04T20:10:35;32.77;;;19.00;;
36241;SDS011;22283;42.748;12.732;2024-02-04T20:15:36;28.13;;;14.20;;
36241;SDS011;22283;42.748;12.732;2024-02-04T20:20:36;22.17;;;13.07;;
36241;SDS011;22283;42.748;12.732;2024-02-04T20:25:37;26.67;;;14.83;;
36241;SDS011;22283;42.748;12.732;2024-02-04T20:30:40;30.75;;;15.43;;
36241;SDS011;22283;42.748;12.732;2024-02-04T20:35:41;24.70;;;13.90;;
36241;SDS011;22283;42.748;12.732;2024-02-04T20:40:43;26.33;;;14.32;;
36241;SDS011;22283;42.748;12.732;2024-02-04T20:45:44;22.33;;;13.27;;
36241;SDS011;22283;42.748;12.732;2024-02-04T20:50:45;23.75;;;13.73;;
36241;SDS011;22283;42.748;12.732;2024-02-04T20:55:46;24.10;;;13.50;;
36241;SDS011;22283;42.748;12.732;2024-02-04T21:00:52;29.75;;;17.30;;
36241;SDS011;22283;42.748;12.732;2024-02-04T21:05:53;34.95;;;18.80;;
36241;SDS011;22283;42.748;12.732;2024-02-04T21:10:54;24.73;;;14.53;;
36241;SDS011;22283;42.748;12.732;2024-02-04T21:15:54;27.23;;;15.13;;
36241;SDS011;22283;42.748;12.732;2024-02-04T21:20:55;22.43;;;13.20;;
36241;SDS011;22283;42.748;12.732;2024-02-04T21:25:56;22.30;;;13.47;;
36241;SDS011;22283;42.748;12.732;2024-02-04T21:30:56;21.50;;;13.17;;
36241;SDS011;22283;42.748;12.732;2024-02-04T21:35:57;24.30;;;13.13;;
36241;SDS011;22283;42.748;12.732;2024-02-04T21:40:57;18.63;;;11.60;;
36241;SDS011;22283;42.748;12.732;2024-02-04T21:45:58;24.50;;;12.77;;
36241;SDS011;22283;42.748;12.732;2024-02-04T21:51:00;26.35;;;15.68;;
36241;SDS011;22283;42.748;12.732;2024-02-04T21:56:00;19.13;;;10.50;;
36241;SDS011;22283;42.748;12.732;2024-02-04T22:01:01;21.90;;;9.53;;
36241;SDS011;22283;42.748;12.732;2024-02-04T22:06:02;19.30;;;11.63;;
36241;SDS011;22283;42.748;12.732;2024-02-04T22:11:02;19.50;;;8.67;;
36241;SDS011;22283;42.748;12.732;2024-02-04T22:16:03;22.97;;;9.77;;
36241;SDS011;22283;42.748;12.732;2024-02-04T22:21:04;13.57;;;8.70;;
36241;SDS011;22283;42.748;12.732;2024-02-04T22:26:05;14.93;;;8.73;;
36241;SDS011;22283;42.748;12.732;2024-02-04T22:31:06;22.53;;;10.40;;
36241;SDS011;22283;42.748;12.732;2024-02-04T22:36:08;23.23;;;11.80;;
36241;SDS011;22283;42.748;12.732;2024-02-04T22:41:09;30.90;;;15.37;;
36241;SDS011;22283;42.748;12.732;2024-02-04T22:46:10;42.63;;;24.42;;
36241;SDS011;22283;42.748;12.732;2024-02-04T22:51:12;20.70;;;12.27;;
36241;SDS011;22283;42.748;12.732;2024-02-04T22:56:13;26.73;;;14.20;;
36241;SDS011;22283;42.748;12.732;2024-02-04T23:01:14;21.87;;;10.30;;
36241;SDS011;22283;42.748;12.732;2024-02-04T23:06:14;15.00;;;9.90;;
36241;SDS011;22283;42.748;12.732;2024-02-04T23:11:15;16.10;;;9.60;;
36241;SDS011;22283;42.748;12.732;2024-02-04T23:16:15;17.50;;;9.67;;
36241;SDS011;22283;42.748;12.732;2024-02-04T23:21:16;20.77;;;9.27;;
36241;SDS011;22283;42.748;12.732;2024-02-04T23:26:17;20.10;;;8.17;;
36241;SDS011;22283;42.748;12.732;2024-02-04T23:31:18;16.80;;;9.05;;
36241;SDS011;22283;42.748;12.732;2024-02-04T23:36:19;11.73;;;7.30;;
36241;SDS011;22283;42.748;12.732;2024-02-04T23:41:20;15.13;;;8.37;;
36241;SDS011;22283;42.748;12.732;2024-02-04T23:46:20;16.77;;;8.17;;
36241;SDS011;22283;42.748;12.732;2024-02-04T23:51:21;14.07;;;8.13;;
36241;SDS011;22283;42.748;12.732;2024-02-04T23:56:22;15.70;;;8.47;;
